Time;durP1;ratioP1;P1;durP2;ratioP2;P2;SDS_P1;SDS_P2;PMS_P1;PMS_P2;Temp;Humidity;BMP_temperature;BMP_pressure;BME280_temperature;BME280_humidity;BME280_pressure;Samples;Min_cycle;Max_cycle;Signal;HPM_P1;HPM_P2
2023/01/08 00:00:47;;;;;;;;;;;10.10;99.90;;;;;;4977321;28;19925;-85
2023/01/08 00:03:12;;;;;;;;;;;9.40;99.90;;;;;;4977763;28;20016;-85
2023/01/08 00:05:38;;;;;;;;;;;9.40;99.90;;;;;;4997348;28;19917;-85
2023/01/08 00:08:04;;;;;;;;;;;9.40;99.90;;;;;;4980149;28;19917;-85
2023/01/08 00:10:30;;;;;;;;;;;9.40;99.90;;;;;;4994420;28;19917;-85
2023/01/08 00:12:55;;;;;;;;;;;9.40;99.90;;;;;;4983065;28;19975;-85
2023/01/08 00:15:21;;;;;;;;;;;9.40;99.90;;;;;;4994449;28;19936;-85
2023/01/08 00:17:47;;;;;;;;;;;10.10;99.90;;;;;;4977516;28;19961;-85
2023/01/08 00:20:12;;;;;;;;;;;10.10;99.90;;;;;;5000633;28;19925;-85
2023/01/08 00:22:38;;;;;;;;;;;9.30;99.90;;;;;;4993672;28;19917;-85
2023/01/08 00:25:04;;;;;;;;;;;9.30;99.90;;;;;;5005016;28;20016;-85
2023/01/08 00:27:29;;;;;;;;;;;9.40;99.90;;;;;;4963497;28;20284;-85
2023/01/08 00:29:55;;;;;;;;;;;9.40;99.90;;;;;;4978508;28;19918;-85
2023/01/08 00:32:20;;;;;;;;;;;9.40;99.90;;;;;;4998419;28;19925;-85
2023/01/08 00:34:47;;;;;;;;;;;9.30;99.90;;;;;;4977216;28;19936;-85
2023/01/08 00:37:12;;;;;;;;;;;9.40;99.90;;;;;;4992964;28;19918;-85
2023/01/08 00:39:38;;;;;;;;;;;10.20;99.90;;;;;;4993788;28;19918;-85
2023/01/08 00:42:03;;;;;;;;;;;9.80;99.90;;;;;;4996787;28;19921;-85
2023/01/08 00:44:29;;;;;;;;;;;9.30;99.90;;;;;;4998467;28;19917;-85
2023/01/08 00:46:54;;;;;;;;;;;9.30;99.90;;;;;;4975825;28;19925;-85
2023/01/08 00:49:20;;;;;;;;;;;9.40;99.90;;;;;;4977741;28;19918;-85
2023/01/08 00:51:45;;;;;;;;;;;9.40;99.90;;;;;;4992983;28;19922;-85
2023/01/08 00:54:11;;;;;;;;;;;9.30;99.90;;;;;;4977182;28;19921;-85
2023/01/08 00:56:36;;;;;;;;;;;9.40;99.90;;;;;;4984626;28;19922;-85
2023/01/08 00:59:02;;;;;;;;;;;9.40;99.90;;;;;;4992505;28;19918;-85
2023/01/08 01:01:28;;;;;;;;;;;9.40;99.90;;;;;;4977701;28;20027;-85
2023/01/08 01:03:53;;;;;;;;;;;9.40;99.90;;;;;;4967584;28;19922;-85
2023/01/08 01:06:19;;;;;;;;;;;9.70;99.90;;;;;;4965464;28;19923;-85
2023/01/08 01:08:44;;;;;;;;;;;10.00;99.90;;;;;;4968941;28;19922;-85
2023/01/08 01:11:15;;;;;;;;;;;9.50;99.90;;;;;;4994245;28;19926;-85
2023/01/08 01:13:40;;;;;;;;;;;9.50;99.90;;;;;;4993852;28;20091;-85
2023/01/08 01:16:06;;;;;;;;;;;9.50;99.90;;;;;;4975626;28;19926;-85
2023/01/08 01:18:31;;;;;;;;;;;9.50;99.90;;;;;;4999582;28;19922;-85
2023/01/08 01:20:57;;;;;;;;;;;9.50;99.90;;;;;;4986801;28;19917;-84
2023/01/08 01:23:23;;;;;;;;;;;9.50;99.90;;;;;;4992705;28;20430;-85
2023/01/08 01:25:48;;;;;;;;;;;9.50;99.90;;;;;;4975597;28;19928;-85
2023/01/08 01:28:15;;;;;;;;;;;9.40;99.90;;;;;;4997876;28;19918;-85
2023/01/08 01:30:41;;;;;;;;;;;9.40;99.90;;;;;;4992800;28;19968;-84
2023/01/08 01:33:06;;;;;;;;;;;9.40;99.90;;;;;;4974881;28;20490;-85
2023/01/08 01:35:32;;;;;;;;;;;9.30;99.90;;;;;;4993238;28;19972;-85
2023/01/08 01:37:57;;;;;;;;;;;9.30;99.90;;;;;;4974790;28;19918;-85
2023/01/08 01:40:23;;;;;;;;;;;9.90;99.90;;;;;;4992706;28;19957;-85
2023/01/08 01:42:48;;;;;;;;;;;9.70;99.90;;;;;;4985443;28;19922;-85
2023/01/08 01:45:26;;;;;;;;;;;9.30;99.90;;;;;;4992395;28;19925;-85
2023/01/08 01:48:24;;;;;;;;;;;9.30;99.90;;;;;;4970113;28;19925;-85
2023/01/08 01:50:50;;;;;;;;;;;9.30;99.90;;;;;;4962439;28;19917;-85
2023/01/08 01:53:19;;;;;;;;;;;9.30;99.90;;;;;;4975632;28;20347;-85
2023/01/08 01:55:45;;;;;;;;;;;9.30;99.90;;;;;;4981091;28;20462;-84
2023/01/08 01:58:13;;;;;;;;;;;10.10;99.90;;;;;;4994321;28;20327;-85
2023/01/08 02:00:39;;;;;;;;;;;9.60;99.90;;;;;;4963485;28;19922;-85
2023/01/08 02:03:05;;;;;;;;;;;9.30;99.90;;;;;;4998437;28;20339;-85
2023/01/08 02:05:54;;;;;;;;;;;9.70;99.90;;;;;;4957558;28;19959;-85
2023/01/08 02:08:30;;;;;;;;;;;9.20;99.90;;;;;;4953071;28;19918;-85
2023/01/08 02:11:25;;;;;;;;;;;9.20;99.90;;;;;;4939480;28;20004;-85
2023/01/08 02:14:12;;;;;;;;;;;9.20;99.90;;;;;;4936668;28;20231;-84
2023/01/08 02:16:56;;;;;;;;;;;9.20;99.90;;;;;;4964416;28;19973;-84
2023/01/08 02:19:24;;;;;;;;;;;9.10;99.90;;;;;;4922805;28;20061;-85
2023/01/08 02:21:52;;;;;;;;;;;9.10;99.90;;;;;;4948090;28;19918;-84
2023/01/08 02:24:21;;;;;;;;;;;9.10;99.90;;;;;;4938979;29;20043;-85
2023/01/08 02:26:47;;;;;;;;;;;9.10;99.90;;;;;;4959114;28;19921;-84
2023/01/08 02:29:18;;;;;;;;;;;9.00;99.90;;;;;;4951823;28;19926;-84
2023/01/08 02:31:44;;;;;;;;;;;9.00;99.90;;;;;;4959537;28;20447;-84
2023/01/08 02:34:10;;;;;;;;;;;9.80;99.90;;;;;;4965488;28;19922;-85
2023/01/08 02:36:38;;;;;;;;;;;9.10;99.90;;;;;;4948584;28;19968;-84
2023/01/08 02:39:16;;;;;;;;;;;8.90;99.90;;;;;;4939129;28;19972;-84
2023/01/08 02:42:00;;;;;;;;;;;8.90;99.90;;;;;;4941405;28;19930;-84
2023/01/08 02:44:32;;;;;;;;;;;8.80;99.90;;;;;;4942362;28;20028;-84
2023/01/08 02:46:59;;;;;;;;;;;9.20;99.90;;;;;;4957655;28;19917;-84
2023/01/08 02:49:28;;;;;;;;;;;8.80;99.90;;;;;;4972902;28;19972;-85
2023/01/08 02:51:55;;;;;;;;;;;8.70;99.90;;;;;;4977140;28;19924;-85
2023/01/08 02:54:22;;;;;;;;;;;8.70;99.90;;;;;;4994301;28;19922;-84
2023/01/08 02:57:05;;;;;;;;;;;8.70;99.90;;;;;;4996669;28;19928;-84
2023/01/08 02:59:31;;;;;;;;;;;8.70;99.90;;;;;;4994007;28;19969;-85
2023/01/08 03:01:57;;;;;;;;;;;8.60;99.90;;;;;;4967858;28;20376;-84
2023/01/08 03:04:24;;;;;;;;;;;8.60;99.90;;;;;;4957034;28;19917;-84
2023/01/08 03:06:49;;;;;;;;;;;8.60;99.90;;;;;;4994870;28;19925;-84
2023/01/08 03:09:15;;;;;;;;;;;8.60;99.90;;;;;;4995608;28;20042;-84
2023/01/08 03:11:53;;;;;;;;;;;8.60;99.90;;;;;;4992643;28;20528;-84
2023/01/08 03:14:23;;;;;;;;;;;8.60;99.90;;;;;;4986620;28;20539;-84
2023/01/08 03:17:09;;;;;;;;;;;9.30;99.90;;;;;;4974240;28;19976;-84
2023/01/08 03:19:37;;;;;;;;;;;9.10;99.90;;;;;;4985744;28;19922;-84
2023/01/08 03:22:05;;;;;;;;;;;9.10;99.90;;;;;;4991332;28;19917;-84
2023/01/08 03:24:32;;;;;;;;;;;8.50;99.90;;;;;;4961659;28;19933;-84
2023/01/08 03:27:01;;;;;;;;;;;8.50;99.90;;;;;;4978551;28;19924;-84
2023/01/08 03:29:26;;;;;;;;;;;8.40;99.90;;;;;;4976763;28;19921;-84
2023/01/08 03:31:55;;;;;;;;;;;8.40;99.90;;;;;;4994584;28;19932;-83
2023/01/08 03:34:22;;;;;;;;;;;8.30;99.90;;;;;;4977526;28;19926;-83
2023/01/08 03:36:49;;;;;;;;;;;8.30;99.90;;;;;;4990748;28;20016;-84
2023/01/08 03:39:20;;;;;;;;;;;8.30;99.90;;;;;;4990585;28;20008;-84
2023/01/08 03:41:46;;;;;;;;;;;8.30;99.90;;;;;;4996835;28;19954;-84
2023/01/08 03:44:11;;;;;;;;;;;8.80;99.90;;;;;;4978551;28;20473;-84
2023/01/08 03:46:39;;;;;;;;;;;8.20;99.90;;;;;;5001418;28;19982;-84
2023/01/08 03:49:06;;;;;;;;;;;8.20;99.90;;;;;;4990922;28;19928;-84
2023/01/08 03:51:45;;;;;;;;;;;8.20;99.90;;;;;;4991181;28;19922;-84
2023/01/08 03:54:14;;;;;;;;;;;8.10;99.90;;;;;;4966496;28;19918;-84
2023/01/08 03:56:40;;;;;;;;;;;8.10;99.90;;;;;;4975282;28;19928;-84
2023/01/08 03:59:06;;;;;;;;;;;8.10;99.90;;;;;;4994804;28;20200;-84
2023/01/08 04:01:31;;;;;;;;;;;8.10;99.90;;;;;;4979554;28;19921;-84
2023/01/08 04:03:57;;;;;;;;;;;8.10;99.90;;;;;;4973930;28;19925;-84
2023/01/08 04:06:22;;;;;;;;;;;8.10;99.90;;;;;;4991158;28;20400;-84
2023/01/08 04:08:48;;;;;;;;;;;8.20;99.90;;;;;;4991225;28;20360;-84
2023/01/08 04:11:13;;;;;;;;;;;8.20;99.90;;;;;;4957705;28;19917;-84
2023/01/08 04:13:39;;;;;;;;;;;8.20;99.90;;;;;;4994628;28;19917;-84
2023/01/08 04:16:05;;;;;;;;;;;8.20;99.90;;;;;;4970431;28;20179;-84
2023/01/08 04:18:30;;;;;;;;;;;8.10;99.90;;;;;;4978463;28;19975;-84
2023/01/08 04:20:56;;;;;;;;;;;8.20;99.90;;;;;;4988530;28;20535;-84
2023/01/08 04:23:21;;;;;;;;;;;8.20;99.90;;;;;;4981485;28;19925;-84
2023/01/08 04:25:47;;;;;;;;;;;8.20;99.90;;;;;;4957581;28;19918;-84
2023/01/08 04:28:12;;;;;;;;;;;8.20;99.90;;;;;;5002710;28;19918;-84
2023/01/08 04:30:38;;;;;;;;;;;8.50;99.90;;;;;;4991274;28;19925;-84
2023/01/08 04:33:03;;;;;;;;;;;8.80;99.90;;;;;;4975486;28;19961;-84
2023/01/08 04:35:29;;;;;;;;;;;8.60;99.90;;;;;;4977739;28;20369;-84
2023/01/08 04:37:54;;;;;;;;;;;8.20;99.90;;;;;;4992137;28;19918;-84
2023/01/08 04:40:20;;;;;;;;;;;8.20;99.90;;;;;;4980689;28;19928;-84
2023/01/08 04:42:45;;;;;;;;;;;8.20;99.90;;;;;;4977098;28;19921;-84
2023/01/08 04:45:11;;;;;;;;;;;8.20;99.90;;;;;;4999658;28;19965;-84
2023/01/08 04:47:36;;;;;;;;;;;8.30;99.90;;;;;;4999521;28;19948;-84
2023/01/08 04:50:02;;;;;;;;;;;8.30;99.90;;;;;;4981755;28;19938;-84
2023/01/08 04:52:28;;;;;;;;;;;8.30;99.90;;;;;;4976906;28;19918;-84
2023/01/08 04:54:53;;;;;;;;;;;8.40;99.90;;;;;;4976466;28;20253;-84
2023/01/08 04:57:19;;;;;;;;;;;8.40;99.90;;;;;;4994448;28;19925;-84
2023/01/08 04:59:44;;;;;;;;;;;8.50;99.90;;;;;;4976093;28;20340;-84
2023/01/08 05:02:10;;;;;;;;;;;8.40;99.90;;;;;;4994279;28;20122;-84
2023/01/08 05:04:35;;;;;;;;;;;8.50;99.90;;;;;;4976363;28;19918;-84
2023/01/08 05:07:02;;;;;;;;;;;9.10;99.90;;;;;;4983887;28;19932;-84
2023/01/08 05:09:27;;;;;;;;;;;8.50;99.90;;;;;;4990002;28;20356;-84
2023/01/08 05:11:53;;;;;;;;;;;8.50;99.90;;;;;;4982054;28;19924;-84
2023/01/08 05:14:19;;;;;;;;;;;9.00;99.90;;;;;;4966971;28;19922;-84
2023/01/08 05:16:44;;;;;;;;;;;8.70;99.90;;;;;;4999290;28;19918;-84
2023/01/08 05:19:10;;;;;;;;;;;8.50;99.90;;;;;;4959870;28;20549;-84
2023/01/08 05:21:35;;;;;;;;;;;8.50;99.90;;;;;;4989121;28;20270;-84
2023/01/08 05:24:01;;;;;;;;;;;8.50;99.90;;;;;;4997561;28;19965;-84
2023/01/08 05:26:26;;;;;;;;;;;8.50;99.90;;;;;;4975923;28;19925;-84
2023/01/08 05:28:52;;;;;;;;;;;8.50;99.90;;;;;;4975125;28;19921;-84
2023/01/08 05:31:17;;;;;;;;;;;8.50;99.90;;;;;;4995326;28;19921;-84
2023/01/08 05:33:43;;;;;;;;;;;8.60;99.90;;;;;;4975824;28;20340;-83
2023/01/08 05:36:10;;;;;;;;;;;8.50;99.90;;;;;;4992888;28;19924;-84
2023/01/08 05:38:36;;;;;;;;;;;8.50;99.90;;;;;;4993185;28;19973;-84
2023/01/08 05:41:01;;;;;;;;;;;8.40;99.90;;;;;;4983188;28;19925;-83
2023/01/08 05:43:28;;;;;;;;;;;9.50;99.90;;;;;;4975192;28;19918;-84
2023/01/08 05:45:53;;;;;;;;;;;8.40;99.90;;;;;;4999413;28;19922;-84
2023/01/08 05:48:19;;;;;;;;;;;8.40;99.90;;;;;;4958316;28;20406;-83
2023/01/08 05:50:47;;;;;;;;;;;8.40;99.90;;;;;;4993121;28;19922;-84
2023/01/08 05:53:12;;;;;;;;;;;8.40;99.90;;;;;;4980621;28;19917;-84
2023/01/08 05:55:38;;;;;;;;;;;8.40;99.90;;;;;;4978994;28;20297;-84
2023/01/08 05:58:04;;;;;;;;;;;8.40;99.90;;;;;;4990779;28;19965;-84
2023/01/08 06:00:30;;;;;;;;;;;8.40;99.90;;;;;;4975349;28;19922;-84
2023/01/08 06:02:56;;;;;;;;;;;8.40;99.90;;;;;;4993196;28;20089;-84
2023/01/08 06:05:21;;;;;;;;;;;8.40;99.90;;;;;;4978045;28;19969;-84
2023/01/08 06:07:47;;;;;;;;;;;8.80;99.90;;;;;;4999537;28;19918;-84
2023/01/08 06:10:12;;;;;;;;;;;8.40;99.90;;;;;;4991414;28;19918;-84
2023/01/08 06:12:38;;;;;;;;;;;8.50;99.90;;;;;;4979396;28;19971;-83
2023/01/08 06:15:04;;;;;;;;;;;8.40;99.90;;;;;;5001384;28;20687;-84
2023/01/08 06:17:30;;;;;;;;;;;8.40;99.90;;;;;;4996387;28;19918;-83
2023/01/08 06:19:55;;;;;;;;;;;8.50;99.90;;;;;;4979099;28;20071;-84
2023/01/08 06:22:21;;;;;;;;;;;8.40;99.90;;;;;;4964270;28;19936;-84
2023/01/08 06:24:46;;;;;;;;;;;8.50;99.90;;;;;;4988485;28;20435;-83
2023/01/08 06:27:12;;;;;;;;;;;8.40;99.90;;;;;;4971254;28;19918;-84
2023/01/08 06:29:37;;;;;;;;;;;8.50;99.90;;;;;;4996447;28;19917;-84
2023/01/08 06:32:03;;;;;;;;;;;8.60;99.90;;;;;;4996807;28;20288;-84
2023/01/08 06:34:28;;;;;;;;;;;8.40;99.90;;;;;;4964757;28;19917;-83
2023/01/08 06:36:54;;;;;;;;;;;8.70;99.90;;;;;;4991670;28;20068;-83
2023/01/08 06:39:19;;;;;;;;;;;8.40;99.90;;;;;;4957723;28;19925;-84
2023/01/08 06:41:45;;;;;;;;;;;9.10;99.90;;;;;;4996772;28;20348;-83
2023/01/08 06:44:10;;;;;;;;;;;8.40;99.90;;;;;;4976881;28;19928;-83
2023/01/08 06:46:39;;;;;;;;;;;8.30;99.90;;;;;;4988265;28;19952;-83
2023/01/08 06:49:05;;;;;;;;;;;8.20;99.90;;;;;;4978803;28;19924;-83
2023/01/08 06:51:30;;;;;;;;;;;8.20;99.90;;;;;;4989048;28;20008;-84
2023/01/08 06:53:56;;;;;;;;;;;8.20;99.90;;;;;;4972110;28;20005;-83
2023/01/08 06:56:21;;;;;;;;;;;8.20;99.90;;;;;;4975042;28;19925;-84
2023/01/08 06:58:47;;;;;;;;;;;8.10;99.90;;;;;;4994304;28;20278;-83
2023/01/08 07:01:13;;;;;;;;;;;8.10;99.90;;;;;;4975021;28;19921;-85
2023/01/08 07:03:39;;;;;;;;;;;8.30;99.90;;;;;;4997019;28;19926;-83
2023/01/08 07:06:04;;;;;;;;;;;8.50;99.90;;;;;;4979363;28;19926;-82
2023/01/08 07:08:30;;;;;;;;;;;8.10;99.90;;;;;;4978188;28;19925;-83
2023/01/08 07:10:56;;;;;;;;;;;8.10;99.90;;;;;;4973362;28;19917;-83
2023/01/08 07:13:22;;;;;;;;;;;8.10;99.90;;;;;;4993518;28;19926;-83
2023/01/08 07:15:48;;;;;;;;;;;8.10;99.90;;;;;;4973874;28;19961;-83
2023/01/08 07:18:13;;;;;;;;;;;8.10;99.90;;;;;;4994261;28;19979;-83
2023/01/08 07:20:39;;;;;;;;;;;8.10;99.90;;;;;;4991644;28;19972;-83
2023/01/08 07:23:05;;;;;;;;;;;8.10;99.90;;;;;;4998882;28;19922;-83
2023/01/08 07:25:31;;;;;;;;;;;8.10;99.90;;;;;;4973555;28;19942;-82
2023/01/08 07:27:57;;;;;;;;;;;8.00;99.90;;;;;;4990873;28;19922;-82
2023/01/08 07:30:23;;;;;;;;;;;8.00;99.90;;;;;;4981313;28;20372;-82
2023/01/08 07:32:49;;;;;;;;;;;7.90;99.90;;;;;;4974328;28;19967;-82
2023/01/08 07:35:15;;;;;;;;;;;7.90;99.90;;;;;;4994086;28;19965;-90
2023/01/08 07:37:41;;;;;;;;;;;7.80;99.90;;;;;;4989260;28;19990;-87
2023/01/08 07:40:07;;;;;;;;;;;8.20;99.90;;;;;;4979257;28;19918;-87
2023/01/08 07:42:33;;;;;;;;;;;7.70;99.90;;;;;;4964717;28;19918;-87
2023/01/08 07:44:58;;;;;;;;;;;7.70;99.90;;;;;;4992274;28;20246;-89
2023/01/08 07:47:24;;;;;;;;;;;7.60;99.90;;;;;;4978895;28;19959;-86
2023/01/08 07:49:49;;;;;;;;;;;7.80;99.90;;;;;;4978919;28;19981;-87
2023/01/08 07:52:15;;;;;;;;;;;7.80;99.90;;;;;;4985816;28;19990;-87
2023/01/08 07:54:40;;;;;;;;;;;7.70;99.90;;;;;;4975135;28;20004;-87
2023/01/08 07:57:06;;;;;;;;;;;7.60;99.90;;;;;;4974041;28;20005;-87
2023/01/08 07:59:31;;;;;;;;;;;7.60;99.90;;;;;;5000174;28;19980;-86
2023/01/08 08:01:57;;;;;;;;;;;7.60;99.90;;;;;;5000594;28;19921;-86
2023/01/08 08:04:23;;;;;;;;;;;7.60;99.90;;;;;;4975064;28;19922;-87
2023/01/08 08:06:49;;;;;;;;;;;8.00;99.90;;;;;;4974485;28;19925;-87
2023/01/08 08:09:14;;;;;;;;;;;7.60;99.90;;;;;;4973967;28;19925;-85
2023/01/08 08:11:40;;;;;;;;;;;7.60;99.90;;;;;;4992013;28;19918;-85
2023/01/08 08:14:06;;;;;;;;;;;7.60;99.90;;;;;;4998000;28;19925;-86
2023/01/08 08:16:31;;;;;;;;;;;7.60;99.90;;;;;;4999190;28;19925;-86
2023/01/08 08:18:58;;;;;;;;;;;7.60;99.90;;;;;;4989138;28;19928;-85
2023/01/08 08:21:23;;;;;;;;;;;7.60;99.90;;;;;;5007401;28;20289;-86
2023/01/08 08:23:49;;;;;;;;;;;7.50;99.90;;;;;;5006167;28;19925;-85
2023/01/08 08:26:14;;;;;;;;;;;7.50;99.90;;;;;;4990096;28;20007;-84
2023/01/08 08:28:40;;;;;;;;;;;7.50;99.90;;;;;;4982866;28;20376;-86
2023/01/08 08:31:05;;;;;;;;;;;7.50;99.90;;;;;;4991199;28;19917;-86
2023/01/08 08:33:31;;;;;;;;;;;7.90;99.90;;;;;;4965943;28;20396;-86
2023/01/08 08:35:56;;;;;;;;;;;7.50;99.90;;;;;;4996740;28;19933;-87
2023/01/08 08:38:23;;;;;;;;;;;7.50;99.90;;;;;;5002015;28;19929;-86
2023/01/08 08:40:49;;;;;;;;;;;7.50;99.90;;;;;;4988566;28;20262;-86
2023/01/08 08:43:14;;;;;;;;;;;7.50;99.90;;;;;;4984678;28;19918;-86
2023/01/08 08:45:40;;;;;;;;;;;7.90;99.90;;;;;;4980167;28;19925;-87
2023/01/08 08:48:06;;;;;;;;;;;7.40;99.90;;;;;;4978096;28;19991;-87
2023/01/08 08:50:31;;;;;;;;;;;7.40;99.90;;;;;;4994749;28;19933;-86
2023/01/08 08:52:58;;;;;;;;;;;7.40;99.90;;;;;;4995246;28;20293;-87
2023/01/08 08:55:23;;;;;;;;;;;7.90;99.90;;;;;;4982978;28;19932;-87
2023/01/08 08:57:49;;;;;;;;;;;7.50;99.90;;;;;;4998206;28;19918;-87
2023/01/08 09:00:15;;;;;;;;;;;7.50;99.90;;;;;;4974408;28;19918;-87
2023/01/08 09:02:40;;;;;;;;;;;7.50;99.90;;;;;;4980917;28;19918;-87
2023/01/08 09:05:06;;;;;;;;;;;8.30;99.90;;;;;;4976816;28;19918;-85
2023/01/08 09:07:32;;;;;;;;;;;7.50;99.90;;;;;;4983679;28;19921;-87
2023/01/08 09:09:57;;;;;;;;;;;7.40;99.90;;;;;;4999537;28;19922;-86
2023/01/08 09:12:23;;;;;;;;;;;7.50;99.90;;;;;;4996693;28;19928;-93
2023/01/08 09:14:53;;;;;;;;;;;7.50;99.90;;;;;;4980284;28;19991;-93
2023/01/08 09:17:20;;;;;;;;;;;7.50;99.90;;;;;;4986804;28;19917;-94
2023/01/08 09:19:46;;;;;;;;;;;7.50;99.90;;;;;;4985259;28;19985;-91
2023/01/08 09:22:11;;;;;;;;;;;7.50;99.90;;;;;;4996171;28;19976;-92
2023/01/08 09:24:37;;;;;;;;;;;7.50;99.90;;;;;;4975722;28;19943;-94
2023/01/08 09:27:02;;;;;;;;;;;7.60;99.90;;;;;;4998665;28;19922;-92
2023/01/08 09:29:28;;;;;;;;;;;7.60;99.90;;;;;;4977892;28;19922;-88
2023/01/08 09:31:54;;;;;;;;;;;7.60;99.90;;;;;;4991104;28;19936;-88
2023/01/08 09:34:19;;;;;;;;;;;7.70;99.90;;;;;;4983419;28;19957;-89
2023/01/08 09:36:45;;;;;;;;;;;7.70;99.90;;;;;;4987664;28;20016;-90
2023/01/08 09:39:11;;;;;;;;;;;7.70;99.90;;;;;;4977456;28;20376;-92
2023/01/08 09:41:41;;;;;;;;;;;7.70;99.90;;;;;;4995260;28;19991;-83
2023/01/08 09:44:10;;;;;;;;;;;7.80;99.90;;;;;;4998531;28;19960;-82
2023/01/08 09:46:35;;;;;;;;;;;8.30;99.90;;;;;;5003855;28;20415;-82
2023/01/08 09:49:03;;;;;;;;;;;8.30;99.90;;;;;;4993934;28;19957;-84
2023/01/08 09:51:34;;;;;;;;;;;7.80;99.90;;;;;;5001358;28;19917;-86
2023/01/08 09:53:59;;;;;;;;;;;7.80;99.90;;;;;;4976505;28;19918;-90
2023/01/08 09:56:25;;;;;;;;;;;7.80;99.90;;;;;;4960887;28;19927;-87
2023/01/08 09:58:52;;;;;;;;;;;8.40;99.90;;;;;;4975512;28;19987;-83
2023/01/08 10:01:19;;;;;;;;;;;7.80;99.90;;;;;;4983061;28;19922;-82
2023/01/08 10:03:48;;;;;;;;;;;7.90;99.90;;;;;;4973584;28;19926;-92
2023/01/08 10:06:15;;;;;;;;;;;7.80;99.90;;;;;;5002941;28;19917;-84
2023/01/08 10:08:40;;;;;;;;;;;7.90;99.90;;;;;;4997523;28;20368;-84
2023/01/08 10:11:07;;;;;;;;;;;8.10;99.90;;;;;;4965817;28;20021;-86
2023/01/08 10:13:33;;;;;;;;;;;7.90;99.90;;;;;;5001163;28;19929;-86
2023/01/08 10:15:59;;;;;;;;;;;8.00;99.90;;;;;;4996774;28;19929;-86
2023/01/08 10:18:25;;;;;;;;;;;8.00;99.90;;;;;;4984363;28;19941;-86
2023/01/08 10:20:51;;;;;;;;;;;8.00;99.90;;;;;;4999916;28;20197;-85
2023/01/08 10:23:18;;;;;;;;;;;8.10;99.90;;;;;;4981237;28;20049;-88
2023/01/08 10:25:52;;;;;;;;;;;8.10;99.90;;;;;;4998893;28;19921;-87
2023/01/08 10:28:19;;;;;;;;;;;8.10;99.90;;;;;;4975012;28;19921;-88
2023/01/08 10:30:45;;;;;;;;;;;8.20;99.90;;;;;;4996175;28;20265;-85
2023/01/08 10:33:19;;;;;;;;;;;8.20;99.90;;;;;;5001483;28;20440;-88
2023/01/08 10:35:50;;;;;;;;;;;8.20;99.90;;;;;;4993895;28;19929;-86
2023/01/08 10:38:44;;;;;;;;;;;8.30;99.90;;;;;;4960545;28;19928;-84
2023/01/08 10:41:12;;;;;;;;;;;8.30;99.90;;;;;;4958268;28;20139;-86
2023/01/08 10:43:49;;;;;;;;;;;8.40;99.90;;;;;;4937125;28;19921;-87
2023/01/08 10:46:29;;;;;;;;;;;8.40;99.90;;;;;;4949795;28;20039;-89
2023/01/08 10:48:56;;;;;;;;;;;8.50;99.90;;;;;;4947114;28;19923;-86
2023/01/08 10:51:23;;;;;;;;;;;8.60;99.90;;;;;;4946349;28;19926;-85
2023/01/08 10:53:49;;;;;;;;;;;8.60;99.90;;;;;;4935255;28;19965;-86
2023/01/08 10:56:19;;;;;;;;;;;8.70;99.90;;;;;;4937749;29;19929;-86
2023/01/08 10:58:45;;;;;;;;;;;8.80;99.90;;;;;;4940623;28;19918;-87
2023/01/08 11:01:21;;;;;;;;;;;8.80;99.90;;;;;;4942036;28;19922;-86
2023/01/08 11:03:56;;;;;;;;;;;8.80;99.90;;;;;;4958818;28;20363;-86
2023/01/08 11:06:24;;;;;;;;;;;8.90;99.90;;;;;;4950407;28;20009;-85
2023/01/08 11:08:54;;;;;;;;;;;8.90;99.90;;;;;;4963105;28;19922;-85
2023/01/08 11:11:20;;;;;;;;;;;9.00;99.90;;;;;;4948627;28;19922;-85
2023/01/08 11:13:59;;;;;;;;;;;9.00;99.90;;;;;;4946914;28;19918;-87
2023/01/08 11:16:36;;;;;;;;;;;9.00;99.90;;;;;;4947637;28;19926;-86
2023/01/08 11:19:01;;;;;;;;;;;9.10;99.90;;;;;;4978238;28;19960;-88
2023/01/08 11:21:30;;;;;;;;;;;9.20;99.90;;;;;;4998074;28;19980;-87
2023/01/08 11:24:05;;;;;;;;;;;9.30;99.90;;;;;;4999621;28;19963;-87
2023/01/08 11:26:31;;;;;;;;;;;9.20;99.90;;;;;;4981890;28;19921;-89
2023/01/08 11:28:59;;;;;;;;;;;9.20;99.90;;;;;;4990117;28;19922;-89
2023/01/08 11:31:34;;;;;;;;;;;9.20;99.90;;;;;;4980431;28;19918;-88
2023/01/08 11:34:05;;;;;;;;;;;9.30;99.90;;;;;;4979872;28;20559;-89
2023/01/08 11:36:37;;;;;;;;;;;9.40;99.90;;;;;;4986688;28;20289;-89
2023/01/08 11:39:04;;;;;;;;;;;9.40;99.90;;;;;;4977971;28;20396;-89
2023/01/08 11:41:33;;;;;;;;;;;9.50;99.90;;;;;;4979775;28;20004;-87
2023/01/08 11:44:28;;;;;;;;;;;9.50;99.90;;;;;;4967616;28;19918;-86
2023/01/08 11:47:12;;;;;;;;;;;9.50;99.90;;;;;;4978688;28;20365;-86
2023/01/08 11:49:40;;;;;;;;;;;9.50;99.90;;;;;;4979199;28;20311;-86
2023/01/08 11:52:25;;;;;;;;;;;9.50;99.90;;;;;;5008071;28;20132;-87
2023/01/08 11:55:23;;;;;;;;;;;9.60;99.90;;;;;;4977015;28;19921;-85
2023/01/08 11:57:57;;;;;;;;;;;9.60;99.90;;;;;;4942753;28;19944;-88
2023/01/08 12:00:35;;;;;;;;;;;9.60;99.90;;;;;;4979932;28;19921;-87
2023/01/08 12:03:02;;;;;;;;;;;9.60;99.90;;;;;;4996367;28;19926;-88
2023/01/08 12:05:40;;;;;;;;;;;10.00;99.90;;;;;;4971884;28;19921;-89
2023/01/08 12:08:09;;;;;;;;;;;9.60;99.90;;;;;;4981361;28;19925;-90
2023/01/08 12:10:47;;;;;;;;;;;9.50;99.90;;;;;;4970046;28;19937;-91
2023/01/08 12:13:26;;;;;;;;;;;9.50;99.90;;;;;;4990046;28;19922;-90
2023/01/08 12:16:06;;;;;;;;;;;9.50;99.90;;;;;;4983545;28;19921;-91
2023/01/08 12:18:42;;;;;;;;;;;9.50;99.90;;;;;;4982299;28;20450;-90
2023/01/08 12:21:36;;;;;;;;;;;9.40;99.90;;;;;;4986088;28;19922;-91
2023/01/08 12:24:08;;;;;;;;;;;9.40;99.90;;;;;;4912681;29;19922;-89
2023/01/08 12:26:52;;;;;;;;;;;9.10;99.90;;;;;;4929421;29;19931;-90
2023/01/08 12:29:29;;;;;;;;;;;9.30;99.90;;;;;;4903837;29;19934;-90
2023/01/08 12:31:54;;;;;;;;;;;9.30;99.90;;;;;;4917679;29;20362;-90
2023/01/08 12:34:26;;;;;;;;;;;9.50;99.90;;;;;;4911748;29;20009;-89
2023/01/08 12:36:53;;;;;;;;;;;9.50;99.90;;;;;;4926395;29;20041;-92
2023/01/08 12:39:21;;;;;;;;;;;10.10;99.90;;;;;;4933508;29;19923;-91
2023/01/08 12:41:48;;;;;;;;;;;9.60;99.90;;;;;;4908311;29;20093;-92
2023/01/08 12:44:15;;;;;;;;;;;9.60;99.90;;;;;;4915346;29;19922;-93
2023/01/08 12:46:42;;;;;;;;;;;9.50;99.90;;;;;;4906257;29;19919;-94
2023/01/08 12:49:09;;;;;;;;;;;9.50;99.90;;;;;;4928570;29;19995;-93
2023/01/08 12:51:50;;;;;;;;;;;9.50;99.90;;;;;;4917296;29;19927;-91
2023/01/08 12:54:25;;;;;;;;;;;9.50;99.90;;;;;;4907104;29;19919;-93
2023/01/08 12:57:06;;;;;;;;;;;9.50;99.90;;;;;;4926794;29;19963;-92
2023/01/08 12:59:38;;;;;;;;;;;9.50;99.90;;;;;;4929040;28;20019;-87
2023/01/08 13:02:07;;;;;;;;;;;10.00;99.90;;;;;;5000324;28;19918;-89
2023/01/08 13:04:40;;;;;;;;;;;9.50;99.90;;;;;;4981667;28;19921;-88
2023/01/08 13:07:05;;;;;;;;;;;9.50;99.90;;;;;;4982897;28;19921;-88
2023/01/08 13:09:31;;;;;;;;;;;9.40;99.90;;;;;;4999103;28;20506;-89
2023/01/08 13:11:58;;;;;;;;;;;9.40;99.90;;;;;;4971068;28;19937;-86
2023/01/08 13:14:24;;;;;;;;;;;9.60;99.90;;;;;;4999215;28;19925;-87
2023/01/08 13:17:00;;;;;;;;;;;9.40;99.90;;;;;;4993836;28;19929;-93
2023/01/08 13:19:26;;;;;;;;;;;9.30;99.90;;;;;;4976832;28;20289;-88
2023/01/08 13:21:53;;;;;;;;;;;9.30;99.90;;;;;;4980777;28;19936;-87
2023/01/08 13:24:27;;;;;;;;;;;9.30;99.90;;;;;;4977640;28;19924;-82
2023/01/08 13:26:53;;;;;;;;;;;9.30;99.90;;;;;;4981362;28;19921;-87
2023/01/08 13:29:24;;;;;;;;;;;9.30;99.90;;;;;;4975143;28;19922;-87
2023/01/08 13:31:50;;;;;;;;;;;9.30;99.90;;;;;;4977960;28;19917;-87
2023/01/08 13:34:34;;;;;;;;;;;9.20;99.90;;;;;;4975978;28;19918;-87
2023/01/08 13:36:59;;;;;;;;;;;9.20;99.90;;;;;;4970168;28;19943;-87
2023/01/08 13:39:35;;;;;;;;;;;9.40;99.90;;;;;;4975650;28;20381;-87
2023/01/08 13:42:12;;;;;;;;;;;9.20;99.90;;;;;;4985119;28;19918;-87
2023/01/08 13:44:46;;;;;;;;;;;9.20;99.90;;;;;;4980465;28;19925;-87
2023/01/08 13:47:31;;;;;;;;;;;9.20;99.90;;;;;;4998349;28;19928;-88
2023/01/08 13:49:57;;;;;;;;;;;9.20;99.90;;;;;;4980559;28;20365;-87
2023/01/08 13:52:28;;;;;;;;;;;9.10;99.90;;;;;;4976087;28;19922;-87
2023/01/08 13:54:54;;;;;;;;;;;9.10;99.90;;;;;;4993121;28;19972;-87
2023/01/08 13:57:21;;;;;;;;;;;9.10;99.90;;;;;;4986938;28;20019;-87
2023/01/08 13:59:48;;;;;;;;;;;9.10;99.90;;;;;;4994451;28;19929;-87
2023/01/08 14:02:22;;;;;;;;;;;9.10;99.90;;;;;;4975501;28;19918;-87
2023/01/08 14:04:48;;;;;;;;;;;9.10;99.90;;;;;;4980699;28;19968;-87
2023/01/08 14:07:14;;;;;;;;;;;9.20;99.90;;;;;;4975575;28;19975;-87
2023/01/08 14:09:39;;;;;;;;;;;9.20;99.90;;;;;;4991910;28;20331;-87
2023/01/08 14:12:05;;;;;;;;;;;9.20;99.90;;;;;;4974591;28;19933;-88
2023/01/08 14:14:30;;;;;;;;;;;9.20;99.90;;;;;;4978387;28;19964;-88
2023/01/08 14:16:56;;;;;;;;;;;9.90;99.90;;;;;;5001378;28;20295;-88
2023/01/08 14:19:23;;;;;;;;;;;9.30;99.90;;;;;;4975070;28;19953;-88
2023/01/08 14:22:00;;;;;;;;;;;9.20;99.90;;;;;;4976795;28;19928;-87
2023/01/08 14:24:26;;;;;;;;;;;9.20;99.90;;;;;;4992565;28;19917;-88
2023/01/08 14:26:56;;;;;;;;;;;9.20;99.90;;;;;;4974058;28;20336;-87
2023/01/08 14:29:23;;;;;;;;;;;9.30;99.90;;;;;;4992799;28;19929;-87
2023/01/08 14:31:59;;;;;;;;;;;9.20;99.90;;;;;;5085978;27;19958;-85
2023/01/08 14:34:26;;;;;;;;;;;9.30;99.90;;;;;;5074632;28;19924;-85